Time;durP1;ratioP1;P1;durP2;ratioP2;P2;SDS_P1;SDS_P2;PMS_P1;PMS_P2;Temp;Humidity;BMP_temperature;BMP_pressure;BME280_temperature;BME280_humidity;BME280_pressure;Samples;Min_cycle;Max_cycle;Signal;HPM_P1;HPM_P2
2023/01/11 00:01:07;;;;;;;1.92;0.88;;;;;;;8.04;86.16;100716.81;5034709;28;20157;-64
2023/01/11 00:03:33;;;;;;;2.30;0.90;;;;;;;8.02;86.91;100716.81;5034244;28;20036;-63
2023/01/11 00:05:59;;;;;;;2.28;0.77;;;;;;;8.01;86.72;100715.94;5035236;28;20043;-64
2023/01/11 00:08:26;;;;;;;1.30;0.75;;;;;;;8.02;86.94;100715.09;5031679;28;20044;-63
2023/01/11 00:10:52;;;;;;;2.80;1.10;;;;;;;8.00;86.88;100721.09;5034030;28;20029;-64
2023/01/11 00:13:18;;;;;;;1.10;0.68;;;;;;;8.02;86.76;100719.38;5036638;28;20041;-63
2023/01/11 00:15:45;;;;;;;1.77;1.15;;;;;;;8.04;86.82;100721.97;5056405;28;20084;-63
2023/01/11 00:18:10;;;;;;;3.03;0.90;;;;;;;8.07;87.32;100721.97;5055557;28;20139;-63
2023/01/11 00:20:40;;;;;;;1.23;0.60;;;;;;;8.12;86.29;100720.25;5058023;28;20490;-63
2023/01/11 00:23:07;;;;;;;0.65;0.60;;;;;;;8.17;86.76;100721.97;5052290;28;20095;-64
2023/01/11 00:25:32;;;;;;;1.00;0.50;;;;;;;8.20;86.59;100721.09;5054421;28;20037;-63
2023/01/11 00:27:58;;;;;;;1.75;0.30;;;;;;;8.34;87.16;100706.50;5011096;28;20038;-63
2023/01/11 00:30:23;;;;;;;1.10;0.43;;;;;;;8.49;85.98;100707.38;5027680;28;20045;-63
2023/01/11 00:32:49;;;;;;;1.85;0.90;;;;;;;8.56;84.94;100700.50;5048418;28;20051;-63
2023/01/11 00:35:14;;;;;;;0.98;0.50;;;;;;;8.58;85.61;100671.28;5045854;28;20159;-63
2023/01/11 00:37:40;;;;;;;0.50;0.40;;;;;;;8.64;85.60;100685.00;5027746;28;20041;-63
2023/01/11 00:40:06;;;;;;;1.13;0.60;;;;;;;8.73;85.51;100672.09;5036848;28;20037;-63
2023/01/11 00:48:03;;;;;;;0.68;0.32;;;;;;;8.94;84.56;100651.44;5051327;28;20131;-63
2023/01/11 00:50:32;;;;;;;0.55;0.40;;;;;;;9.01;84.54;100646.25;5047023;28;20037;-63
2023/01/11 00:52:58;;;;;;;0.60;0.40;;;;;;;9.01;84.36;100633.38;5044576;28;20090;-62
2023/01/11 00:55:24;;;;;;;0.93;0.30;;;;;;;9.09;83.94;100621.28;5055725;28;20085;-62
2023/01/11 00:57:49;;;;;;;0.90;0.40;;;;;;;9.10;83.81;100623.03;5036343;28;20120;-63
2023/01/11 01:00:16;;;;;;;0.52;0.40;;;;;;;9.06;83.50;100626.47;5058326;28;20040;-63
2023/01/11 01:02:41;;;;;;;0.90;0.38;;;;;;;8.99;83.61;100635.06;5043866;28;20513;-64
2023/01/11 01:05:07;;;;;;;0.40;0.40;;;;;;;8.91;84.69;100628.25;5025477;28;20044;-63
2023/01/11 01:07:32;;;;;;;0.30;0.30;;;;;;;8.82;84.78;100631.72;5040913;28;20095;-63
2023/01/11 01:09:58;;;;;;;0.73;0.45;;;;;;;8.77;84.62;100638.63;5041899;28;20498;-63
2023/01/11 01:15:07;;;;;;;0.60;0.60;;;;;;;8.66;85.59;100644.66;5039886;28;20408;-64
2023/01/11 01:17:33;;;;;;;0.50;0.50;;;;;;;8.64;85.76;100642.06;5051994;28;20041;-63
2023/01/11 01:19:58;;;;;;;1.23;0.55;;;;;;;8.60;85.70;100635.22;5053016;28;20041;-63
2023/01/11 01:22:23;;;;;;;0.52;0.40;;;;;;;8.65;86.19;100618.03;5040546;28;20036;-63
2023/01/11 01:24:49;;;;;;;1.20;0.63;;;;;;;8.65;86.29;100620.59;5039095;28;20048;-64
2023/01/11 01:27:16;;;;;;;0.70;0.50;;;;;;;8.70;86.28;100630.88;5051829;28;20580;-64
2023/01/11 01:29:44;;;;;;;0.98;0.60;;;;;;;8.69;86.61;100630.06;5059857;28;20097;-65
2023/01/11 01:32:10;;;;;;;0.80;0.50;;;;;;;8.70;86.37;100631.75;5057362;28;20511;-63
2023/01/11 01:34:36;;;;;;;0.60;0.52;;;;;;;8.72;86.62;100632.63;5056865;28;20049;-63
2023/01/11 01:37:02;;;;;;;0.73;0.52;;;;;;;8.81;86.43;100636.88;5057254;28;20039;-63
2023/01/11 01:39:28;;;;;;;1.15;0.60;;;;;;;8.85;86.57;100636.00;5058343;28;20039;-63
2023/01/11 01:41:53;;;;;;;1.13;1.02;;;;;;;8.87;86.21;100629.97;5059054;28;20040;-63
2023/01/11 01:44:56;;;;;;;1.75;0.65;;;;;;;8.85;86.45;100644.59;5058734;28;20041;-63
2023/01/11 01:47:37;;;;;;;3.22;0.90;;;;;;;8.83;86.12;100643.75;5055500;28;20036;-63
2023/01/11 01:50:08;;;;;;;1.42;0.63;;;;;;;8.80;86.72;100642.91;5059593;28;20044;-63
2023/01/11 01:52:35;;;;;;;2.03;0.75;;;;;;;8.78;87.23;100647.19;5059056;28;20044;-63
2023/01/11 01:55:05;;;;;;;0.70;0.57;;;;;;;8.77;86.58;100636.03;5061983;28;20885;-63
2023/01/11 01:57:34;;;;;;;3.30;0.80;;;;;;;8.79;86.78;100643.75;5061474;28;20050;-63
2023/01/11 02:00:05;;;;;;;1.60;0.80;;;;;;;8.77;86.97;100636.03;5040496;28;20056;-63
2023/01/11 02:02:30;;;;;;;1.20;0.80;;;;;;;8.75;87.20;100632.63;5048799;28;20105;-63
2023/01/11 02:04:57;;;;;;;0.60;0.60;;;;;;;8.76;86.60;100628.28;5049227;28;20529;-64
2023/01/11 02:07:30;;;;;;;1.95;0.85;;;;;;;8.75;87.84;100627.47;5033756;28;20061;-63
2023/01/11 02:09:58;;;;;;;0.85;0.70;;;;;;;8.79;87.50;100626.56;5032381;28;20033;-63
2023/01/11 02:12:26;;;;;;;3.50;0.70;;;;;;;8.84;87.24;100617.09;5035844;28;20755;-63
2023/01/11 02:14:53;;;;;;;1.05;0.70;;;;;;;8.85;87.46;100610.22;5041459;28;20903;-63
2023/01/11 02:17:18;;;;;;;1.92;0.90;;;;;;;8.86;87.59;100607.66;5051402;28;20045;-64
2023/01/11 02:20:19;;;;;;;1.23;0.52;;;;;;;8.87;87.44;100606.75;5052014;28;20041;-64
2023/01/11 02:22:57;;;;;;;1.05;0.60;;;;;;;8.91;87.48;100598.16;5034831;28;20087;-64
2023/01/11 02:25:37;;;;;;;0.57;0.50;;;;;;;8.95;87.42;100602.47;5039476;28;20871;-63
2023/01/11 02:28:17;;;;;;;0.70;0.70;;;;;;;9.00;86.94;100603.28;5039191;28;20020;-64
2023/01/11 02:31:02;;;;;;;0.50;0.50;;;;;;;9.01;86.76;100599.00;5039368;28;20071;-63
2023/01/11 02:33:39;;;;;;;0.93;0.60;;;;;;;9.00;87.08;100594.69;5037881;28;20095;-63
2023/01/11 02:36:08;;;;;;;0.95;0.68;;;;;;;9.01;87.73;100596.41;5035905;28;20816;-63
2023/01/11 02:38:49;;;;;;;1.10;0.50;;;;;;;9.03;87.80;100589.53;5036307;28;20765;-63
2023/01/11 02:41:25;;;;;;;1.23;0.50;;;;;;;9.03;87.52;100584.38;5035216;28;21364;-63
2023/01/11 02:47:03;;;;;;;1.30;0.60;;;;;;;9.03;87.26;100585.22;5040228;28;20031;-63
2023/01/11 02:50:03;;;;;;;0.73;0.50;;;;;;;9.03;87.80;100579.22;5035004;28;20047;-63
2023/01/11 02:52:54;;;;;;;1.30;0.68;;;;;;;9.03;88.12;100574.91;5036675;28;20120;-63
2023/01/11 02:55:30;;;;;;;0.93;0.63;;;;;;;9.06;88.13;100569.75;5024250;28;20056;-63
2023/01/11 02:58:00;;;;;;;1.52;0.70;;;;;;;9.06;88.05;100568.88;5035965;28;20571;-63
2023/01/11 03:00:26;;;;;;;1.15;0.50;;;;;;;9.06;88.70;100562.00;5039497;28;20041;-65
2023/01/11 03:03:15;;;;;;;0.68;0.60;;;;;;;9.09;88.80;100564.56;5039679;28;20106;-63
2023/01/11 03:05:46;;;;;;;8.77;0.95;;;;;;;9.10;88.62;100566.28;5037835;28;20103;-64
2023/01/11 03:08:48;;;;;;;1.02;0.60;;;;;;;9.12;88.63;100543.06;5038686;28;20549;-63
2023/01/11 03:14:30;;;;;;;1.85;0.90;;;;;;;9.19;88.11;100525.84;5040124;28;20641;-63
2023/01/11 03:17:20;;;;;;;0.75;0.63;;;;;;;9.24;88.55;100524.06;5041030;28;20045;-63
2023/01/11 03:19:51;;;;;;;2.10;0.57;;;;;;;9.27;88.19;100522.34;5038477;28;20564;-63
2023/01/11 03:22:49;;;;;;;0.60;0.60;;;;;;;9.28;87.98;100521.47;5039005;28;20036;-63
2023/01/11 03:25:27;;;;;;;0.60;0.47;;;;;;;9.32;88.01;100520.56;5005925;28;20045;-63
2023/01/11 03:28:00;;;;;;;0.50;0.50;;;;;;;9.36;87.39;100524.00;5038785;28;20032;-60
2023/01/11 03:31:03;;;;;;;1.88;0.70;;;;;;;9.40;87.54;100523.13;5041025;28;20045;-60
2023/01/11 03:33:29;;;;;;;1.50;0.60;;;;;;;9.42;87.73;100519.66;5038945;28;20091;-60
2023/01/11 03:36:13;;;;;;;2.00;0.50;;;;;;;9.45;87.55;100521.34;5039749;28;20067;-60
2023/01/11 03:38:50;;;;;;;1.70;0.87;;;;;;;9.45;87.72;100523.94;5037555;28;20040;-60
2023/01/11 03:41:22;;;;;;;0.95;0.50;;;;;;;9.47;87.87;100511.84;5039271;28;20049;-60
2023/01/11 03:43:51;;;;;;;0.50;0.47;;;;;;;9.50;88.62;100504.97;5036294;28;20072;-60
2023/01/11 03:46:35;;;;;;;1.58;0.43;;;;;;;9.56;88.68;100509.22;5039514;28;20055;-60
2023/01/11 03:49:08;;;;;;;0.85;0.70;;;;;;;9.59;88.41;100502.34;5037804;28;20032;-60
2023/01/11 03:51:40;;;;;;;0.43;0.30;;;;;;;9.74;87.41;100493.59;5038214;28;20156;-60
2023/01/11 03:54:08;;;;;;;0.20;0.20;;;;;;;9.88;88.79;100491.72;5035086;28;20029;-60
2023/01/11 03:56:49;;;;;;;1.35;0.40;;;;;;;10.04;87.58;100488.13;5042503;28;20124;-60
2023/01/11 03:59:15;;;;;;;0.28;0.28;;;;;;;10.27;87.27;100495.63;5041329;28;20134;-60
2023/01/11 04:01:40;;;;;;;0.10;0.10;;;;;;;10.39;85.53;100484.28;5044116;28;20771;-64
2023/01/11 04:04:05;;;;;;;0.20;0.10;;;;;;;10.51;84.97;100482.41;5056754;28;20028;-63
2023/01/11 04:06:34;;;;;;;0.40;0.20;;;;;;;10.57;85.45;100484.91;5036276;28;20045;-63
2023/01/11 04:09:00;;;;;;;0.17;0.17;;;;;;;10.62;85.21;100475.38;5030589;28;20545;-63
2023/01/11 04:11:25;;;;;;;0.15;0.13;;;;;;;10.67;84.78;100478.75;5037468;28;20186;-64
2023/01/11 04:13:50;;;;;;;0.20;0.20;;;;;;;10.67;84.51;100473.59;5033597;28;20409;-64
2023/01/11 04:16:16;;;;;;;0.28;0.28;;;;;;;10.66;85.23;100482.22;5036275;28;20075;-63
2023/01/11 04:18:41;;;;;;;0.20;0.20;;;;;;;10.66;85.36;100481.34;5037474;28;20433;-64
2023/01/11 04:21:07;;;;;;;0.13;0.13;;;;;;;10.64;85.49;100478.81;5037424;28;20041;-63
2023/01/11 04:23:32;;;;;;;0.20;0.20;;;;;;;10.61;85.53;100483.16;5051479;28;20040;-64
2023/01/11 04:25:57;;;;;;;0.35;0.22;;;;;;;10.57;86.86;100481.47;5049523;28;20574;-64
2023/01/11 04:28:23;;;;;;;0.45;0.20;;;;;;;10.49;87.65;100472.97;5037781;28;20083;-63
2023/01/11 04:30:48;;;;;;;1.65;0.30;;;;;;;10.42;88.26;100479.94;5059243;28;20539;-64
2023/01/11 04:33:13;;;;;;;0.20;0.20;;;;;;;10.33;89.79;100474.06;5037995;28;20841;-63
2023/01/11 04:35:39;;;;;;;0.20;0.20;;;;;;;10.26;90.86;100477.56;5034775;28;20040;-62
2023/01/11 04:38:04;;;;;;;0.47;0.20;;;;;;;10.21;90.71;100475.88;5035128;28;20083;-62
2023/01/11 04:40:29;;;;;;;0.20;0.20;;;;;;;10.18;91.44;100477.63;5037597;28;20045;-62
2023/01/11 04:42:55;;;;;;;0.65;0.30;;;;;;;10.14;91.95;100481.16;5035923;28;20024;-62
2023/01/11 04:45:20;;;;;;;1.13;0.40;;;;;;;10.12;92.39;100488.91;5035609;28;20044;-61
2023/01/11 04:47:53;;;;;;;0.38;0.30;;;;;;;10.11;93.20;100474.28;5036829;28;20124;-61
2023/01/11 04:50:18;;;;;;;6.25;3.70;;;;;;;10.08;93.63;100476.91;5033477;28;20061;-62
2023/01/11 04:52:44;;;;;;;1.98;1.10;;;;;;;10.11;93.87;100481.19;5036300;28;20573;-62
2023/01/11 04:55:09;;;;;;;1.08;0.50;;;;;;;10.12;93.84;100481.16;5039774;28;20071;-62
2023/01/11 04:57:35;;;;;;;1.85;0.38;;;;;;;10.12;94.15;100473.41;5058682;28;20032;-63
2023/01/11 05:00:00;;;;;;;0.98;0.40;;;;;;;10.13;94.58;100472.53;5057747;28;20041;-63
2023/01/11 05:02:26;;;;;;;0.35;0.20;;;;;;;10.19;95.05;100469.03;5058618;28;20036;-63
2023/01/11 05:04:51;;;;;;;0.47;0.30;;;;;;;10.17;95.14;100469.06;5055854;28;20032;-63
2023/01/11 05:07:16;;;;;;;0.30;0.30;;;;;;;10.18;95.90;100467.31;5053373;28;20036;-63
2023/01/11 05:09:42;;;;;;;0.55;0.30;;;;;;;10.18;95.32;100469.88;5039170;28;20028;-62
2023/01/11 05:12:07;;;;;;;0.70;0.40;;;;;;;10.18;95.68;100460.41;5052726;28;20432;-63
2023/01/11 05:14:33;;;;;;;0.57;0.30;;;;;;;10.22;95.21;100467.28;5054296;28;20041;-63
2023/01/11 05:16:58;;;;;;;0.65;0.30;;;;;;;10.22;95.08;100459.53;5054921;28;20154;-62
2023/01/11 05:19:24;;;;;;;0.40;0.30;;;;;;;10.21;95.72;100460.38;5053165;28;20074;-62
2023/01/11 05:21:49;;;;;;;0.50;0.30;;;;;;;10.21;95.93;100451.78;5040366;28;20127;-62
2023/01/11 05:24:15;;;;;;;0.20;0.20;;;;;;;10.21;96.14;100449.19;5056083;28;20055;-62
2023/01/11 05:26:43;;;;;;;0.35;0.30;;;;;;;10.23;96.18;100455.22;5054421;28;20160;-62
2023/01/11 05:29:13;;;;;;;0.20;0.20;;;;;;;10.22;96.74;100450.91;5056393;28;20028;-62
2023/01/11 05:31:39;;;;;;;2.45;0.50;;;;;;;10.21;96.84;100456.94;5055323;28;20162;-62
2023/01/11 05:34:08;;;;;;;0.22;0.20;;;;;;;10.22;97.13;100451.78;5057131;28;20538;-62
2023/01/11 05:36:34;;;;;;;1.17;0.30;;;;;;;10.23;96.27;100458.66;5055355;28;20028;-62
2023/01/11 05:39:00;;;;;;;0.98;0.28;;;;;;;10.21;97.26;100452.63;5054649;28;20037;-63
2023/01/11 05:41:26;;;;;;;1.52;0.30;;;;;;;10.22;97.14;100440.59;5038852;28;20515;-63
2023/01/11 05:46:39;;;;;;;0.38;0.20;;;;;;;10.27;97.25;100440.53;5061037;28;21034;-62
2023/01/11 05:49:06;;;;;;;0.40;0.40;;;;;;;10.26;97.42;100441.41;5056462;28;20742;-63
2023/01/11 05:51:32;;;;;;;0.30;0.30;;;;;;;10.24;97.29;100438.81;5061186;28;20126;-63
2023/01/11 05:53:58;;;;;;;0.80;0.40;;;;;;;10.26;97.47;100444.00;5058618;28;20103;-63
2023/01/11 05:56:24;;;;;;;0.30;0.30;;;;;;;10.28;97.24;100432.75;5042787;28;20044;-63
2023/01/11 05:58:50;;;;;;;1.52;0.40;;;;;;;10.28;97.56;100434.47;5057249;28;20655;-63
2023/01/11 06:01:18;;;;;;;1.60;0.35;;;;;;;10.30;97.68;100430.16;5058721;28;20597;-62
2023/01/11 06:03:44;;;;;;;0.88;0.30;;;;;;;10.29;97.13;100429.31;5060017;28;20504;-63
2023/01/11 06:06:10;;;;;;;1.23;0.52;;;;;;;10.29;97.67;100433.63;5050185;28;20115;-63
2023/01/11 06:08:35;;;;;;;1.50;0.50;;;;;;;10.29;97.97;100429.31;5057731;28;20119;-63
2023/01/11 06:11:01;;;;;;;0.82;0.50;;;;;;;10.30;97.45;100432.75;5037276;28;20036;-63
2023/01/11 06:13:26;;;;;;;0.82;0.57;;;;;;;10.30;97.93;100428.41;5039611;28;20041;-63
2023/01/11 06:15:52;;;;;;;1.58;0.40;;;;;;;10.31;97.76;100424.97;5060378;28;20027;-63
2023/01/11 06:18:17;;;;;;;2.90;0.60;;;;;;;10.34;97.81;100426.66;5061008;28;20047;-63
2023/01/11 06:20:47;;;;;;;1.33;0.50;;;;;;;10.32;97.77;100418.09;5058232;28;20084;-63
2023/01/11 06:23:12;;;;;;;0.43;0.43;;;;;;;10.32;97.62;100423.25;5056447;28;20739;-63
2023/01/11 06:25:37;;;;;;;1.17;0.50;;;;;;;10.33;97.82;100414.63;5058152;28;20055;-63
2023/01/11 06:28:03;;;;;;;0.30;0.30;;;;;;;10.38;97.37;100411.13;5041294;28;20048;-63
2023/01/11 06:30:29;;;;;;;2.28;1.10;;;;;;;10.36;97.65;100418.00;5059970;28;20183;-63
2023/01/11 06:32:54;;;;;;;1.55;0.35;;;;;;;10.41;97.60;100424.00;5054653;28;20048;-63
2023/01/11 06:35:20;;;;;;;0.35;0.35;;;;;;;10.40;97.95;100419.69;5048081;28;20044;-64
2023/01/11 06:37:46;;;;;;;0.40;0.30;;;;;;;10.41;97.05;100420.53;5051952;28;20132;-64
2023/01/11 06:40:11;;;;;;;0.50;0.50;;;;;;;10.44;97.13;100421.38;5053192;28;20137;-63
2023/01/11 06:42:37;;;;;;;0.90;0.68;;;;;;;10.50;97.09;100418.69;5053619;28;20056;-64
2023/01/11 06:45:03;;;;;;;0.60;0.60;;;;;;;10.51;97.05;100420.38;5050834;28;20151;-63
2023/01/11 06:47:28;;;;;;;0.93;0.70;;;;;;;10.52;97.22;100422.09;5055782;28;20681;-64
2023/01/11 06:49:53;;;;;;;1.20;0.50;;;;;;;10.51;97.01;100428.13;5047830;28;20097;-64
2023/01/11 06:52:19;;;;;;;0.57;0.32;;;;;;;10.55;97.35;100428.97;5041359;28;20034;-63
2023/01/11 06:54:44;;;;;;;0.85;0.40;;;;;;;10.50;97.27;100431.63;5060261;28;20120;-64
2023/01/11 06:57:10;;;;;;;0.90;0.40;;;;;;;10.50;97.47;100449.72;5043533;28;20580;-64
2023/01/11 06:59:37;;;;;;;1.15;0.40;;;;;;;10.49;97.41;100448.00;5055253;28;20111;-63
2023/01/11 07:02:02;;;;;;;0.20;0.20;;;;;;;10.50;97.79;100448.84;5051894;28;20037;-63
2023/01/11 07:04:31;;;;;;;2.10;0.30;;;;;;;10.46;98.11;100454.91;5056862;28;20052;-64
2023/01/11 07:06:56;;;;;;;2.72;0.43;;;;;;;10.44;98.07;100457.53;5059567;28;20047;-63
2023/01/11 07:09:22;;;;;;;1.58;0.50;;;;;;;10.45;98.07;100456.66;5057695;28;20044;-64
2023/01/11 07:11:47;;;;;;;0.98;0.50;;;;;;;10.42;98.29;100458.41;5057334;28;20028;-64
2023/01/11 07:14:18;;;;;;;0.60;0.40;;;;;;;10.43;98.93;100455.81;5054721;28;20124;-64
2023/01/11 07:16:44;;;;;;;1.27;0.40;;;;;;;10.50;98.59;100456.59;5053799;28;20118;-64
2023/01/11 07:19:09;;;;;;;0.40;0.40;;;;;;;10.50;99.33;100461.78;5049878;28;20143;-64
2023/01/11 07:21:34;;;;;;;0.32;0.30;;;;;;;10.51;99.43;100464.31;5052665;28;20079;-64
2023/01/11 07:24:01;;;;;;;1.02;0.50;;;;;;;10.51;98.91;100471.22;5040704;28;20029;-64
2023/01/11 07:26:27;;;;;;;0.40;0.40;;;;;;;10.50;98.86;100472.97;5055896;28;20066;-65
2023/01/11 07:28:52;;;;;;;2.45;0.30;;;;;;;10.50;99.87;100485.03;5054882;28;20048;-64
2023/01/11 07:31:18;;;;;;;0.50;0.30;;;;;;;10.49;100.00;100488.47;5057297;28;20561;-64
2023/01/11 07:33:43;;;;;;;2.03;1.38;;;;;;;10.50;100.00;100488.47;5058526;28;20509;-63
2023/01/11 07:36:08;;;;;;;0.90;0.50;;;;;;;10.51;99.91;100497.06;5053760;28;20385;-60
2023/01/11 07:38:34;;;;;;;0.93;0.60;;;;;;;10.51;100.00;100495.31;5057477;28;20036;-60
2023/01/11 07:40:59;;;;;;;0.90;0.60;;;;;;;10.52;100.00;100501.34;5053809;28;20128;-63
2023/01/11 07:43:25;;;;;;;0.93;0.55;;;;;;;10.52;100.00;100509.97;5054226;28;20044;-63
2023/01/11 07:45:51;;;;;;;2.85;0.63;;;;;;;10.54;100.00;100517.69;5058269;28;20070;-64
2023/01/11 07:48:25;;;;;;;0.77;0.50;;;;;;;10.53;100.00;100522.03;5052896;28;20041;-64
2023/01/11 07:50:51;;;;;;;1.10;0.50;;;;;;;10.55;100.00;100530.59;5044789;28;20591;-63
2023/01/11 07:53:17;;;;;;;1.48;0.75;;;;;;;10.57;100.00;100534.03;5058907;28;20050;-64
2023/01/11 07:55:43;;;;;;;0.95;0.73;;;;;;;10.57;100.00;100534.03;5058739;28;20032;-64
2023/01/11 07:58:13;;;;;;;1.10;0.65;;;;;;;10.57;100.00;100541.78;5039844;28;20555;-64
2023/01/11 08:00:39;;;;;;;1.58;0.55;;;;;;;10.57;100.00;100546.94;5039831;28;20040;-63
2023/01/11 08:03:05;;;;;;;1.58;0.70;;;;;;;10.59;100.00;100552.97;5049923;28;20436;-63
2023/01/11 08:05:30;;;;;;;0.85;0.52;;;;;;;10.62;100.00;100560.66;5041297;28;20045;-63
2023/01/11 08:07:56;;;;;;;4.20;0.60;;;;;;;10.65;100.00;100557.22;5036407;28;20072;-63
2023/01/11 08:10:22;;;;;;;3.20;0.70;;;;;;;10.64;100.00;100558.94;5036143;28;20051;-63
2023/01/11 08:15:34;;;;;;;1.88;0.50;;;;;;;10.62;100.00;100565.00;5034270;28;20052;-64
2023/01/11 08:18:02;;;;;;;0.73;0.60;;;;;;;10.61;100.00;100564.13;5036626;28;20029;-63
2023/01/11 08:20:27;;;;;;;0.60;0.50;;;;;;;10.61;100.00;100566.72;5034691;28;20510;-64
2023/01/11 08:22:53;;;;;;;2.22;0.68;;;;;;;10.64;100.00;100565.81;5037981;28;20041;-64
2023/01/11 08:25:19;;;;;;;1.30;0.60;;;;;;;10.63;100.00;100574.44;5037271;28;20071;-64
2023/01/11 08:27:44;;;;;;;1.50;0.40;;;;;;;10.63;100.00;100572.72;5033681;28;20032;-64
2023/01/11 08:30:11;;;;;;;0.73;0.52;;;;;;;10.65;100.00;100567.53;5037707;28;20033;-64
2023/01/11 08:32:37;;;;;;;1.02;0.50;;;;;;;10.65;100.00;100581.31;5035432;28;20510;-64
2023/01/11 08:35:03;;;;;;;0.52;0.35;;;;;;;10.65;100.00;100585.63;5034438;28;20067;-63
2023/01/11 08:37:28;;;;;;;0.73;0.47;;;;;;;10.66;100.00;100584.75;5036683;28;20032;-63
2023/01/11 08:39:55;;;;;;;2.35;0.40;;;;;;;10.66;100.00;100582.16;5001926;28;20433;-63
2023/01/11 08:42:21;;;;;;;2.60;0.50;;;;;;;10.65;100.00;100586.47;5036596;28;20045;-64
2023/01/11 08:44:46;;;;;;;2.05;0.55;;;;;;;10.65;100.00;100589.06;5037680;28;20448;-64
2023/01/11 08:47:12;;;;;;;1.30;0.63;;;;;;;10.63;100.00;100589.94;5036491;28;20049;-64
2023/01/11 08:49:37;;;;;;;1.00;0.50;;;;;;;10.63;100.00;100587.38;5032485;28;20071;-64
2023/01/11 08:52:03;;;;;;;2.65;0.90;;;;;;;10.64;100.00;100600.28;5035833;28;20032;-65
2023/01/11 08:54:28;;;;;;;3.13;0.80;;;;;;;10.64;100.00;100599.44;5036089;28;20048;-59
2023/01/11 08:56:54;;;;;;;1.25;0.80;;;;;;;10.63;100.00;100608.03;5034167;28;20064;-58
2023/01/11 08:59:20;;;;;;;1.98;1.20;;;;;;;10.64;100.00;100610.63;5043349;28;21536;-62
2023/01/11 09:01:46;;;;;;;3.08;1.35;;;;;;;10.63;100.00;100623.56;5053384;28;20040;-63
2023/01/11 09:04:12;;;;;;;2.47;1.20;;;;;;;10.62;100.00;100627.84;5051740;28;20632;-63
2023/01/11 09:06:37;;;;;;;3.80;1.20;;;;;;;10.62;100.00;100630.44;5031025;28;20038;-63
2023/01/11 09:09:03;;;;;;;2.10;1.20;;;;;;;10.63;100.00;100633.88;5027698;28;20038;-63
2023/01/11 09:14:12;;;;;;;3.80;0.90;;;;;;;10.65;100.00;100639.91;5028887;28;20855;-62
2023/01/11 09:16:38;;;;;;;2.28;1.35;;;;;;;10.64;100.00;100640.78;5030607;28;20049;-62
2023/01/11 09:19:03;;;;;;;3.65;0.93;;;;;;;10.65;100.00;100634.75;5026396;28;20025;-63
2023/01/11 09:21:29;;;;;;;2.47;0.68;;;;;;;10.67;100.00;100625.25;5035286;28;20102;-63
2023/01/11 09:23:55;;;;;;;1.75;0.82;;;;;;;10.68;100.00;100639.88;5039817;28;20083;-63
2023/01/11 09:26:20;;;;;;;0.63;0.63;;;;;;;10.69;100.00;100641.56;5037177;28;20060;-63
2023/01/11 09:28:46;;;;;;;1.17;0.73;;;;;;;10.70;100.00;100633.81;5038796;28;20049;-62
2023/01/11 09:31:11;;;;;;;4.70;1.25;;;;;;;10.70;100.00;100628.66;5036018;28;20057;-62
2023/01/11 09:33:39;;;;;;;3.15;0.98;;;;;;;10.72;100.00;100628.63;5060625;28;20064;-62
2023/01/11 09:36:05;;;;;;;3.75;1.35;;;;;;;10.72;100.00;100626.91;5040600;28;20036;-63
2023/01/11 09:38:32;;;;;;;4.90;1.65;;;;;;;10.72;100.00;100623.44;5046967;28;20044;-63
2023/01/11 09:41:23;;;;;;;3.53;1.70;;;;;;;10.73;100.00;100631.22;5051537;28;20037;-62
2023/01/11 09:44:01;;;;;;;3.25;1.35;;;;;;;10.73;100.00;100635.50;5028027;28;20871;-62
2023/01/11 09:46:28;;;;;;;2.88;1.45;;;;;;;10.74;100.00;100632.91;5023285;28;20623;-59
2023/01/11 09:49:02;;;;;;;4.28;1.50;;;;;;;10.74;100.00;100634.66;5020522;28;20037;-59
2023/01/11 09:51:36;;;;;;;2.90;1.20;;;;;;;10.74;100.00;100647.56;5039138;28;20194;-60
2023/01/11 09:54:05;;;;;;;2.30;1.40;;;;;;;10.75;100.00;100650.13;5040003;28;20041;-59
2023/01/11 09:56:45;;;;;;;3.25;1.20;;;;;;;10.76;100.00;100664.78;5039132;28;20043;-63
2023/01/11 09:59:28;;;;;;;2.80;1.50;;;;;;;10.78;100.00;100665.59;5036375;28;20036;-63
2023/01/11 10:02:26;;;;;;;2.80;1.25;;;;;;;10.78;100.00;100681.13;5040023;28;20167;-63
2023/01/11 10:05:18;;;;;;;2.22;1.42;;;;;;;10.74;100.00;100674.25;5037241;28;20159;-67
2023/01/11 10:08:02;;;;;;;2.53;1.00;;;;;;;10.71;100.00;100689.81;5035443;28;20713;-62
2023/01/11 10:10:50;;;;;;;3.07;1.10;;;;;;;10.69;100.00;100691.56;5036675;28;20037;-62
2023/01/11 10:13:42;;;;;;;3.08;1.30;;;;;;;10.68;100.00;100692.41;5034618;28;20127;-63
2023/01/11 10:16:31;;;;;;;6.63;1.13;;;;;;;10.64;99.88;100693.34;5034040;28;20063;-63
2023/01/11 10:18:57;;;;;;;5.40;1.60;;;;;;;10.69;98.06;100701.91;5039425;28;20052;-63
2023/01/11 10:21:28;;;;;;;9.30;2.00;;;;;;;10.72;96.98;100708.75;5038204;28;20658;-62
2023/01/11 10:24:01;;;;;;;8.95;2.33;;;;;;;10.73;95.84;100708.75;5035730;28;20048;-62
2023/01/11 10:26:35;;;;;;;9.50;3.13;;;;;;;10.74;96.15;100717.38;5041201;28;20163;-62
2023/01/11 10:32:02;;;;;;;9.73;2.70;;;;;;;10.74;95.92;100730.31;5038003;28;20040;-62
2023/01/11 10:34:58;;;;;;;7.78;3.17;;;;;;;10.72;96.19;100740.63;5035222;28;20036;-62
2023/01/11 10:43:16;;;;;;;13.55;3.33;;;;;;;10.75;93.20;100758.72;5036335;28;20132;-62
2023/01/11 10:45:49;;;;;;;16.80;3.83;;;;;;;10.74;91.93;100754.41;5034356;28;20049;-62
2023/01/11 10:48:31;;;;;;;8.85;3.28;;;;;;;10.75;91.99;100761.28;5054943;28;20071;-61
2023/01/11 10:51:15;;;;;;;16.52;3.67;;;;;;;10.76;91.57;100762.16;5038986;28;20084;-62
2023/01/11 10:53:58;;;;;;;15.98;4.57;;;;;;;10.75;90.83;100745.78;5036436;28;20056;-62
2023/01/11 10:56:50;;;;;;;12.43;3.50;;;;;;;10.76;91.52;100744.94;5037350;28;20941;-62
2023/01/11 11:00:00;;;;;;;18.33;4.07;;;;;;;10.80;90.86;100735.41;5039522;28;20037;-62
2023/01/11 11:02:41;;;;;;;17.88;4.75;;;;;;;10.82;90.83;100743.13;5007710;28;20160;-62
2023/01/11 11:05:29;;;;;;;12.90;3.33;;;;;;;10.79;90.46;100725.94;5030938;28;20143;-62
2023/01/11 11:08:03;;;;;;;14.60;3.67;;;;;;;10.78;89.05;100737.13;5033083;28;20040;-62
2023/01/11 11:10:34;;;;;;;16.58;3.90;;;;;;;10.78;90.13;100737.13;5041022;28;20083;-62
2023/01/11 11:13:20;;;;;;;13.63;3.88;;;;;;;10.78;87.99;100735.41;5059561;28;20095;-62
2023/01/11 11:15:59;;;;;;;25.77;4.88;;;;;;;10.78;87.89;100742.31;5036132;28;20068;-63
2023/01/11 11:18:24;;;;;;;15.25;3.38;;;;;;;10.75;88.27;100745.78;5026289;28;20041;-63
2023/01/11 11:20:50;;;;;;;15.77;3.33;;;;;;;10.72;87.46;100748.41;5038370;28;20743;-63
2023/01/11 11:23:20;;;;;;;16.17;3.78;;;;;;;10.73;87.20;100744.09;5034044;28;20784;-63
2023/01/11 11:25:53;;;;;;;15.63;2.97;;;;;;;10.71;85.71;100749.25;5036176;28;20064;-63
2023/01/11 11:28:21;;;;;;;11.57;2.72;;;;;;;10.70;86.19;100754.47;5040745;28;20035;-63
2023/01/11 11:30:48;;;;;;;13.60;3.60;;;;;;;10.70;85.12;100757.03;5059134;28;20025;-64
2023/01/11 11:33:22;;;;;;;15.93;3.85;;;;;;;10.70;86.14;100770.84;5060473;28;20039;-63
2023/01/11 11:35:56;;;;;;;13.52;3.70;;;;;;;10.72;85.68;100779.41;5038371;28;20098;-64
2023/01/11 11:38:30;;;;;;;18.45;3.13;;;;;;;10.72;85.51;100786.31;5027525;28;20076;-63
2023/01/11 11:41:12;;;;;;;13.25;3.33;;;;;;;10.70;85.49;100788.06;5034547;28;20037;-64
2023/01/11 11:43:42;;;;;;;11.55;3.15;;;;;;;10.69;84.08;100788.91;5031852;28;20037;-63
2023/01/11 11:46:13;;;;;;;19.88;3.05;;;;;;;10.67;82.97;100778.63;5051759;28;20033;-63
2023/01/11 11:48:40;;;;;;;17.38;3.25;;;;;;;10.64;83.40;100790.69;5037670;28;20498;-63
2023/01/11 11:51:13;;;;;;;18.83;3.83;;;;;;;10.62;83.46;100782.94;5036748;28;20159;-62
2023/01/11 11:53:44;;;;;;;10.60;2.53;;;;;;;10.59;82.75;100782.13;5035210;28;20041;-64
2023/01/11 11:56:22;;;;;;;15.20;2.53;;;;;;;10.54;83.10;100786.47;5039016;28;20036;-64
2023/01/11 11:58:48;;;;;;;14.45;3.20;;;;;;;10.53;82.31;100792.53;5038743;28;20040;-63
2023/01/11 12:01:27;;;;;;;12.65;2.90;;;;;;;10.49;83.34;100789.09;5020629;28;20049;-63
2023/01/11 12:03:57;;;;;;;12.43;2.95;;;;;;;10.47;82.72;100783.09;5039311;28;20098;-64
2023/01/11 12:06:29;;;;;;;16.33;2.97;;;;;;;10.47;82.67;100782.22;5037762;28;20033;-63
2023/01/11 12:08:56;;;;;;;16.65;2.88;;;;;;;10.48;82.72;100773.59;5037184;28;20172;-64